SBCT/CWB METAR and TAF weather

Enter ICAO airport designator
Station Type Date Time Source
SBCT METAR 2022/06/30 13:00 UTC NOAA

SBCT 301300Z VRB02KT CAVOK 13/05 Q1022


Station Type Date Time Source
SBCT Decoded METAR 2022/06/30 13:00 UTC NOAA

Curitiba Aeroporto , Brazil (SBCT) 25-31S 049-10W 908M
Jun 30, 2022 - 09:00 AM EDT / 2022.06.30 1300 UTC
Wind: Variable at 2 MPH (2 KT):0
Visibility: greater than 7 mile(s):0
Temperature: 55 F (13 C)
Dew Point: 41 F (5 C)
Relative Humidity: 58%
Pressure (altimeter): 30.18 in. Hg (1022 hPa)
ob: SBCT 301300Z VRB02KT CAVOK 13/05 Q1022
cycle: 13

Station Type Date Time Source
SBCT TAF 2022/06/30 12:39 UTC NOAA

TAF SBCT 300900Z 3012/0112 31005KT CAVOK TX19/3017Z TN06/0109Z
BECMG 3022/3024 03005KT
BECMG 0100/0102 8000 BKN008
BECMG 0104/0106 2000 BR BKN006
BECMG 0106/0108 0600 FG VV002
BECMG 0110/0112 2000 BR BKN004
RMK PFD

Example: see airport list